createdAt,value
2019-04-06T00:00:37.405Z,13.18
2019-04-06T00:03:08.125Z,11.55
2019-04-06T00:05:38.713Z,11.88
2019-04-06T00:08:09.164Z,11.55
2019-04-06T00:10:39.643Z,13.93
2019-04-06T00:13:10.170Z,12.20
2019-04-06T00:15:40.682Z,12.33
2019-04-06T00:18:11.149Z,13.48
2019-04-06T00:20:42.805Z,13.95
2019-04-06T00:23:13.265Z,13.32
2019-04-06T00:25:45.002Z,15.25
2019-04-06T00:28:15.742Z,12.20
2019-04-06T00:31:11.481Z,13.67
2019-04-06T00:33:42.867Z,13.03
2019-04-06T00:36:13.308Z,13.17
2019-04-06T00:38:43.790Z,13.10
2019-04-06T00:41:14.572Z,12.95
2019-04-06T00:43:45.335Z,12.70
2019-04-06T00:46:16.190Z,11.88
2019-04-06T00:48:47.053Z,13.13
2019-04-06T00:51:17.556Z,12.05
2019-04-06T00:53:48.065Z,12.35
2019-04-06T00:56:18.680Z,12.82
2019-04-06T00:58:49.298Z,12.03
2019-04-06T01:01:19.861Z,14.03
2019-04-06T01:03:50.765Z,13.53
2019-04-06T01:06:21.209Z,12.75
2019-04-06T01:08:51.660Z,13.33
2019-04-06T01:11:22.108Z,13.32
2019-04-06T01:13:52.600Z,13.00
2019-04-06T01:16:23.169Z,11.88
2019-04-06T01:18:54.150Z,12.43
2019-04-06T01:21:24.657Z,10.78
2019-04-06T01:23:55.113Z,13.70
2019-04-06T01:26:25.627Z,12.13
2019-04-06T01:28:56.547Z,15.32
2019-04-06T01:31:27.093Z,13.83
2019-04-06T01:33:59.130Z,13.25
2019-04-06T01:36:29.915Z,13.48
2019-04-06T01:39:00.461Z,13.60
2019-04-06T01:41:30.987Z,12.82
2019-04-06T01:44:01.549Z,12.80
2019-04-06T01:46:32.039Z,13.93
2019-04-06T01:49:02.532Z,13.50
2019-04-06T01:51:33.029Z,15.10
2019-04-06T01:54:03.551Z,18.20
2019-04-06T01:56:34.069Z,13.53
2019-04-06T01:59:04.776Z,16.07
2019-04-06T02:01:42.343Z,16.12
2019-04-06T02:04:13.265Z,15.50
2019-04-06T02:06:43.753Z,16.27
2019-04-06T02:09:14.429Z,15.83
2019-04-06T02:11:44.928Z,13.93
2019-04-06T02:14:15.522Z,13.87
2019-04-06T02:16:45.989Z,14.83
2019-04-06T02:19:16.811Z,13.48
2019-04-06T02:21:47.303Z,13.43
2019-04-06T02:24:17.788Z,15.73
2019-04-06T02:26:48.429Z,14.43
2019-04-06T02:29:19.068Z,16.05
2019-04-06T02:32:18.023Z,15.50
2019-04-06T02:34:55.435Z,15.48
2019-04-06T02:37:45.406Z,16.23
2019-04-06T02:40:34.871Z,17.02
2019-04-06T02:43:11.638Z,15.18
2019-04-06T02:45:42.103Z,14.93
2019-04-06T02:48:12.619Z,15.90
2019-04-06T02:50:43.371Z,16.48
2019-04-06T02:53:14.185Z,15.90
2019-04-06T02:55:44.958Z,17.62
2019-04-06T02:58:15.470Z,18.25
2019-04-06T03:00:45.925Z,17.30
2019-04-06T03:03:16.480Z,17.27
2019-04-06T03:05:46.946Z,16.57
2019-04-06T03:08:17.430Z,18.57
2019-04-06T03:10:48.207Z,22.73
2019-04-06T03:13:18.819Z,25.05
2019-04-06T03:15:49.313Z,16.37
2019-04-06T03:18:20.166Z,18.67
2019-04-06T03:20:50.838Z,16.57
2019-04-06T03:23:24.441Z,15.93
2019-04-06T03:25:54.022Z,18.45
2019-04-06T03:28:24.923Z,16.07
2019-04-06T03:30:55.567Z,17.00
2019-04-06T03:33:26.612Z,15.28
2019-04-06T03:35:57.815Z,18.05
2019-04-06T03:38:29.554Z,16.20
2019-04-06T03:41:00.024Z,17.17
2019-04-06T03:43:30.530Z,20.30
2019-04-06T03:46:00.990Z,17.67
2019-04-06T03:48:31.484Z,17.62
2019-04-06T03:51:02.306Z,16.60
2019-04-06T03:53:32.788Z,19.77
2019-04-06T03:56:03.411Z,15.78
2019-04-06T03:58:34.038Z,16.85
2019-04-06T04:01:04.512Z,15.65
2019-04-06T04:03:35.036Z,18.55
2019-04-06T04:06:05.493Z,20.33
2019-04-06T04:08:36.015Z,17.47
2019-04-06T04:11:06.457Z,16.70
2019-04-06T04:13:36.933Z,16.37
2019-04-06T04:16:07.453Z,20.55
2019-04-06T04:18:37.978Z,15.68
2019-04-06T04:21:08.517Z,17.17
2019-04-06T04:23:39.041Z,17.60
2019-04-06T04:26:09.592Z,21.27
2019-04-06T04:28:40.810Z,26.30
2019-04-06T04:31:11.265Z,25.15
2019-04-06T04:33:41.748Z,28.23
2019-04-06T04:36:12.247Z,27.02
2019-04-06T04:38:43.181Z,24.18
2019-04-06T04:41:14.278Z,29.32
2019-04-06T04:43:45.331Z,28.80
2019-04-06T04:46:15.822Z,23.87
2019-04-06T04:48:46.325Z,20.45
2019-04-06T04:51:17.101Z,19.95
2019-04-06T04:53:47.664Z,23.92
2019-04-06T04:56:18.182Z,23.52
2019-04-06T04:58:48.888Z,27.07
2019-04-06T05:01:19.700Z,27.02
2019-04-06T05:03:50.174Z,28.87
2019-04-06T05:06:20.649Z,28.42
2019-04-06T05:08:51.554Z,26.93
2019-04-06T05:11:22.085Z,26.97
2019-04-06T05:14:29.392Z,27.37
2019-04-06T05:16:59.846Z,29.20
2019-04-06T05:19:30.316Z,28.95
2019-04-06T05:22:01.145Z,27.65
2019-04-06T05:24:31.688Z,32.25
2019-04-06T05:27:02.173Z,27.50
2019-04-06T05:29:33.293Z,28.05
2019-04-06T05:32:04.249Z,26.82
2019-04-06T05:34:34.735Z,30.52
2019-04-06T05:37:05.306Z,28.38
2019-04-06T05:39:36.168Z,27.90
2019-04-06T05:42:06.724Z,22.62
2019-04-06T05:44:37.180Z,22.70
2019-04-06T05:47:07.759Z,25.92
2019-04-06T05:49:38.545Z,25.97
2019-04-06T05:52:09.500Z,24.92
2019-04-06T05:54:41.009Z,24.65
2019-04-06T05:57:11.637Z,23.95
2019-04-06T05:59:42.087Z,24.85
2019-04-06T06:02:12.611Z,26.25
2019-04-06T06:04:43.522Z,23.67
2019-04-06T06:07:14.092Z,24.37
2019-04-06T06:09:44.992Z,25.17
2019-04-06T06:12:16.127Z,27.13
2019-04-06T06:14:47.668Z,27.95
2019-04-06T06:17:18.129Z,28.45
2019-04-06T06:19:48.595Z,27.37
2019-04-06T06:22:19.145Z,30.40
2019-04-06T06:24:49.665Z,28.62
2019-04-06T06:27:22.545Z,30.35
2019-04-06T06:29:52.617Z,30.25
2019-04-06T06:32:23.074Z,32.43
2019-04-06T06:34:53.656Z,31.45
2019-04-06T06:37:24.244Z,30.20
2019-04-06T06:39:54.754Z,29.45
2019-04-06T06:42:25.232Z,30.35
2019-04-06T06:44:55.720Z,30.62
2019-04-06T06:47:26.218Z,29.07
2019-04-06T06:49:56.680Z,30.23
2019-04-06T06:52:27.173Z,31.12
2019-04-06T06:54:57.930Z,32.43
2019-04-06T06:57:28.381Z,29.85
2019-04-06T06:59:59.012Z,33.05
2019-04-06T07:02:30.069Z,26.27
2019-04-06T07:05:00.770Z,25.03
2019-04-06T07:07:31.236Z,22.80
2019-04-06T07:10:05.826Z,23.40
2019-04-06T07:12:33.964Z,21.30
2019-04-06T07:15:05.119Z,23.23
2019-04-06T07:17:35.600Z,22.53
2019-04-06T07:20:07.196Z,23.10
2019-04-06T07:22:37.653Z,23.93
2019-04-06T07:25:08.950Z,22.60
2019-04-06T07:27:39.772Z,22.63
2019-04-06T07:30:10.496Z,23.30
2019-04-06T07:32:40.991Z,21.97
2019-04-06T07:35:12.340Z,22.67
2019-04-06T07:37:42.806Z,21.50
2019-04-06T07:40:14.734Z,22.70
2019-04-06T07:42:45.165Z,22.83
2019-04-06T07:45:16.672Z,21.50
2019-04-06T07:47:47.133Z,24.10
2019-04-06T07:50:18.033Z,23.07
2019-04-06T07:52:48.563Z,23.47
2019-04-06T07:55:18.993Z,19.40
2019-04-06T07:57:49.653Z,20.40
2019-04-06T08:00:20.616Z,20.30
2019-04-06T08:02:51.457Z,19.97
2019-04-06T08:05:21.947Z,19.97
2019-04-06T08:07:52.389Z,21.33
2019-04-06T08:10:22.881Z,21.80
2019-04-06T08:12:54.584Z,21.70
2019-04-06T08:15:25.057Z,23.17
2019-04-06T08:17:55.565Z,21.37
2019-04-06T08:20:26.147Z,21.47
2019-04-06T08:22:57.648Z,22.37
2019-04-06T08:25:28.402Z,19.77
2019-04-06T08:27:59.136Z,22.57
2019-04-06T08:30:30.024Z,22.63
2019-04-06T08:33:00.507Z,19.57
2019-04-06T08:35:30.989Z,21.33
2019-04-06T08:38:01.541Z,20.50
2019-04-06T08:40:32.076Z,19.10
2019-04-06T08:43:02.554Z,21.23
2019-04-06T08:45:33.013Z,20.07
2019-04-06T08:48:03.456Z,18.47
2019-04-06T08:50:33.905Z,19.10
2019-04-06T08:53:05.449Z,17.43
2019-04-06T08:55:36.025Z,16.87
2019-04-06T08:58:06.643Z,15.30
2019-04-06T09:00:37.283Z,16.03
2019-04-06T09:03:07.804Z,16.00
2019-04-06T09:05:38.262Z,15.60
2019-04-06T09:08:08.755Z,15.97
2019-04-06T09:10:39.438Z,15.50
2019-04-06T09:13:09.997Z,16.30
2019-04-06T09:15:40.513Z,16.53
2019-04-06T09:18:12.059Z,15.80
2019-04-06T09:20:42.940Z,15.97
2019-04-06T09:23:13.388Z,17.47
2019-04-06T09:25:43.844Z,16.47
2019-04-06T09:28:14.362Z,16.20
2019-04-06T09:30:45.119Z,17.13
2019-04-06T09:33:15.734Z,18.70
2019-04-06T09:35:46.213Z,18.20
2019-04-06T09:38:20.337Z,17.43
2019-04-06T09:40:51.215Z,16.93
2019-04-06T09:43:21.723Z,17.00
2019-04-06T09:46:09.831Z,18.23
2019-04-06T09:49:14.399Z,18.97
2019-04-06T09:52:19.084Z,17.17
2019-04-06T09:55:07.679Z,17.03
2019-04-06T09:57:56.125Z,18.03
2019-04-06T10:00:45.656Z,16.93
2019-04-06T10:03:42.518Z,16.80
2019-04-06T10:06:34.955Z,16.43
2019-04-06T10:09:42.033Z,16.10
2019-04-06T10:12:23.968Z,16.30
2019-04-06T10:15:15.810Z,15.07
2019-04-06T10:18:05.357Z,16.43
2019-04-06T10:20:46.925Z,15.20
2019-04-06T10:23:29.779Z,14.17
2019-04-06T10:26:11.680Z,13.80
2019-04-06T10:29:03.040Z,13.90
2019-04-06T10:31:42.198Z,14.03
2019-04-06T10:34:34.849Z,13.70
2019-04-06T10:37:22.969Z,13.30
2019-04-06T10:40:00.918Z,14.00
2019-04-06T10:42:54.889Z,13.57
2019-04-06T10:45:44.957Z,13.77
2019-04-06T10:48:21.553Z,15.27
2019-04-06T10:51:11.118Z,13.53
2019-04-06T10:54:00.650Z,13.90
2019-04-06T10:56:39.793Z,13.23
2019-04-06T10:59:35.355Z,11.57
2019-04-06T11:02:23.528Z,13.23
2019-04-06T11:05:09.229Z,12.10
2019-04-06T11:07:57.614Z,12.53
2019-04-06T11:11:02.163Z,14.47
2019-04-06T11:13:49.384Z,11.23
2019-04-06T11:16:29.394Z,11.97
2019-04-06T11:19:37.039Z,12.97
2019-04-06T11:22:22.260Z,12.67
2019-04-06T11:25:14.810Z,12.40
2019-04-06T11:28:04.452Z,12.37
2019-04-06T11:30:56.983Z,12.43
2019-04-06T11:33:45.472Z,12.00
2019-04-06T11:36:44.362Z,12.00
2019-04-06T11:39:31.862Z,12.13
2019-04-06T11:42:15.087Z,12.87
2019-04-06T11:44:52.195Z,13.37
2019-04-06T11:47:57.208Z,14.00
2019-04-06T11:50:49.767Z,13.20
2019-04-06T11:53:33.438Z,12.63
2019-04-06T11:56:21.522Z,12.83
2019-04-06T11:59:11.357Z,12.63
2019-04-06T12:01:49.242Z,13.63
2019-04-06T12:04:38.689Z,13.20
2019-04-06T12:07:31.266Z,12.93
2019-04-06T12:10:08.210Z,17.70
2019-04-06T12:12:56.714Z,15.20
2019-04-06T12:15:38.067Z,14.67
2019-04-06T12:18:40.260Z,18.27
2019-04-06T12:21:29.775Z,15.47
2019-04-06T12:24:25.357Z,15.07
2019-04-06T12:27:18.464Z,15.53
2019-04-06T12:30:08.073Z,15.50
2019-04-06T12:33:10.158Z,14.73
2019-04-06T12:35:58.856Z,15.77
2019-04-06T12:38:57.724Z,16.00
2019-04-06T12:41:43.692Z,15.27
2019-04-06T12:44:32.119Z,15.93
2019-04-06T12:47:09.748Z,15.63
2019-04-06T12:50:11.824Z,15.27
2019-04-06T12:53:04.108Z,15.60
2019-04-06T12:55:43.974Z,16.37
2019-04-06T12:58:43.111Z,16.83
2019-04-06T13:01:32.677Z,14.90
2019-04-06T13:04:40.600Z,14.23
2019-04-06T13:07:29.124Z,14.80
2019-04-06T13:10:10.161Z,14.80
2019-04-06T13:12:58.623Z,15.53
2019-04-06T13:15:37.581Z,15.17
2019-04-06T13:18:26.034Z,15.40
2019-04-06T13:21:21.668Z,14.60
2019-04-06T13:24:11.175Z,14.60
2019-04-06T13:27:07.455Z,23.47
2019-04-06T13:30:00.064Z,23.20
2019-04-06T13:32:48.633Z,17.03
2019-04-06T13:35:56.815Z,16.07
2019-04-06T13:38:46.563Z,14.40
2019-04-06T13:41:54.130Z,14.17
2019-04-06T13:44:31.718Z,14.97
2019-04-06T13:47:24.074Z,14.93
2019-04-06T13:50:29.928Z,14.13
2019-04-06T13:53:28.525Z,14.23
2019-04-06T13:56:22.082Z,15.83
2019-04-06T13:59:14.752Z,17.37
2019-04-06T14:01:51.080Z,17.20
2019-04-06T14:04:35.330Z,16.80
2019-04-06T14:07:19.586Z,20.73
2019-04-06T14:10:15.482Z,16.00
2019-04-06T14:13:09.565Z,16.50
2019-04-06T14:15:55.783Z,15.30
2019-04-06T14:18:44.392Z,16.13
2019-04-06T14:21:29.433Z,16.20
2019-04-06T14:24:17.809Z,18.13
2019-04-06T14:27:06.004Z,16.67
2019-04-06T14:30:01.528Z,16.63
2019-04-06T14:32:50.269Z,17.10
2019-04-06T14:35:39.464Z,17.93
2019-04-06T14:38:22.734Z,17.47
2019-04-06T14:41:11.302Z,17.70
2019-04-06T14:44:04.331Z,16.40
2019-04-06T14:46:50.998Z,15.77
2019-04-06T14:49:40.486Z,16.07
2019-04-06T14:52:49.551Z,16.67
2019-04-06T14:55:29.321Z,16.50
2019-04-06T14:58:21.887Z,16.63
2019-04-06T15:01:10.052Z,15.07
2019-04-06T15:03:51.921Z,14.10
2019-04-06T15:06:47.827Z,14.47
2019-04-06T15:09:37.337Z,14.73
2019-04-06T15:12:36.173Z,14.03
2019-04-06T15:15:31.842Z,14.00
2019-04-06T15:18:21.379Z,13.70
2019-04-06T15:21:09.924Z,13.67
2019-04-06T15:24:02.690Z,15.10
2019-04-06T15:26:52.009Z,14.17
2019-04-06T15:29:47.159Z,12.90
2019-04-06T15:32:35.632Z,12.80
2019-04-06T15:35:40.810Z,13.23
2019-04-06T15:38:17.113Z,12.93
2019-04-06T15:40:57.256Z,13.00
2019-04-06T15:43:59.192Z,12.63
2019-04-06T15:46:46.969Z,11.57
2019-04-06T15:49:42.698Z,12.37
2019-04-06T15:52:41.218Z,13.23
2019-04-06T15:55:34.390Z,13.37
2019-04-06T15:58:14.750Z,12.80
2019-04-06T16:01:03.851Z,13.77
2019-04-06T16:04:05.837Z,13.67
2019-04-06T16:07:14.075Z,14.00
2019-04-06T16:10:03.844Z,14.27
2019-04-06T16:12:56.306Z,13.30
2019-04-06T16:15:48.669Z,13.33
2019-04-06T16:18:37.118Z,11.87
2019-04-06T16:21:29.728Z,13.33
2019-04-06T16:24:13.736Z,12.13
2019-04-06T16:26:56.947Z,12.03
2019-04-06T16:29:58.537Z,13.10
2019-04-06T16:32:47.031Z,12.40
2019-04-06T16:35:44.532Z,11.87
2019-04-06T16:38:39.158Z,14.87
2019-04-06T16:41:44.375Z,15.63
2019-04-06T16:44:24.785Z,12.97
2019-04-06T16:47:14.655Z,12.33
2019-04-06T16:50:10.811Z,12.17
2019-04-06T16:53:00.322Z,12.97
2019-04-06T16:55:37.812Z,12.50
2019-04-06T16:58:26.219Z,12.83
2019-04-06T17:01:10.710Z,14.10
2019-04-06T17:03:54.446Z,13.47
2019-04-06T17:06:47.401Z,14.40
2019-04-06T17:09:43.428Z,14.50
2019-04-06T17:12:32.986Z,14.03
2019-04-06T17:15:12.898Z,12.97
2019-04-06T17:17:58.750Z,11.40
2019-04-06T17:20:49.347Z,13.97
2019-04-06T17:23:31.452Z,13.27
2019-04-06T17:26:10.463Z,14.50
2019-04-06T17:29:00.085Z,13.63
2019-04-06T17:31:52.662Z,14.10
2019-04-06T17:34:57.755Z,13.93
2019-04-06T17:37:33.380Z,13.70
2019-04-06T17:40:35.540Z,14.07
2019-04-06T17:43:21.834Z,12.13
2019-04-06T17:45:58.940Z,14.00
2019-04-06T17:48:48.449Z,12.93
2019-04-06T17:51:37.316Z,13.97
2019-04-06T17:54:26.833Z,14.47
2019-04-06T17:57:28.935Z,14.30
2019-04-06T18:00:17.268Z,12.10
2019-04-06T18:03:13.454Z,11.80
2019-04-06T18:06:21.196Z,13.33
2019-04-06T18:09:14.063Z,13.53
2019-04-06T18:12:02.114Z,13.53
2019-04-06T18:14:33.797Z,14.70
2019-04-06T18:17:05.000Z,12.97
2019-04-06T18:19:36.026Z,14.43
2019-04-06T18:22:06.632Z,14.13
2019-04-06T18:24:37.416Z,14.37
2019-04-06T18:27:08.202Z,15.57
2019-04-06T18:29:40.029Z,14.07
2019-04-06T18:32:29.361Z,13.07
2019-04-06T18:34:59.906Z,13.93
2019-04-06T18:37:49.452Z,14.57
2019-04-06T18:40:25.071Z,15.50
2019-04-06T18:42:56.287Z,15.00
2019-04-06T18:45:30.115Z,13.47
2019-04-06T18:48:00.961Z,15.07
2019-04-06T18:50:36.083Z,15.50
2019-04-06T18:53:04.772Z,15.17
2019-04-06T18:55:35.299Z,15.90
2019-04-06T18:58:11.238Z,16.50
2019-04-06T19:00:38.022Z,16.37
2019-04-06T19:03:13.900Z,16.57
2019-04-06T19:05:40.725Z,15.10
2019-04-06T19:08:11.236Z,16.17
2019-04-06T19:10:41.852Z,14.90
2019-04-06T19:13:12.368Z,15.60
2019-04-06T19:15:42.824Z,15.60
2019-04-06T19:18:13.464Z,16.60
2019-04-06T19:20:46.131Z,14.80
2019-04-06T19:23:18.505Z,15.90
2019-04-06T19:25:49.085Z,16.67
2019-04-06T19:28:19.908Z,18.40
2019-04-06T19:30:50.970Z,17.60
2019-04-06T19:33:25.182Z,17.43
2019-04-06T19:35:54.222Z,19.90
2019-04-06T19:38:25.563Z,21.80
2019-04-06T19:40:56.140Z,23.30
2019-04-06T19:43:26.834Z,19.13
2019-04-06T19:45:57.663Z,19.90
2019-04-06T19:48:28.522Z,20.03
2019-04-06T19:50:59.058Z,18.40
2019-04-06T19:53:30.056Z,17.70
2019-04-06T19:56:00.998Z,18.87
2019-04-06T19:58:32.591Z,14.27
2019-04-06T20:01:03.152Z,16.13
2019-04-06T20:03:37.112Z,16.77
2019-04-06T20:06:06.623Z,16.57
2019-04-06T20:08:37.251Z,16.90
2019-04-06T20:11:07.756Z,16.20
2019-04-06T20:13:38.247Z,17.20
2019-04-06T20:16:08.850Z,16.90
2019-04-06T20:18:40.037Z,16.50
2019-04-06T20:21:10.756Z,17.33
2019-04-06T20:23:41.345Z,17.43
2019-04-06T20:26:11.805Z,15.93
2019-04-06T20:28:42.272Z,16.93
2019-04-06T20:31:13.339Z,16.47
2019-04-06T20:33:50.981Z,16.47
2019-04-06T20:36:16.505Z,16.67
2019-04-06T20:38:47.175Z,16.97
2019-04-06T20:41:18.146Z,16.53
2019-04-06T20:43:48.773Z,16.33
2019-04-06T20:46:20.458Z,15.83
2019-04-06T20:48:51.253Z,15.53
2019-04-06T20:51:21.797Z,15.77
2019-04-06T20:53:52.319Z,15.53
2019-04-06T20:56:22.803Z,15.70
2019-04-06T20:58:53.381Z,16.50
2019-04-06T21:01:24.002Z,16.80
2019-04-06T21:04:00.831Z,16.27
2019-04-06T21:06:26.872Z,16.17
2019-04-06T21:08:57.634Z,16.37
2019-04-06T21:11:28.137Z,16.13
2019-04-06T21:14:00.156Z,17.80
2019-04-06T21:16:31.732Z,15.33
2019-04-06T21:19:02.608Z,15.83
2019-04-06T21:21:33.701Z,15.30
2019-04-06T21:24:04.694Z,16.33
2019-04-06T21:26:35.748Z,17.47
2019-04-06T21:29:06.388Z,16.23
2019-04-06T21:31:38.200Z,16.60
2019-04-06T21:34:11.899Z,17.23
2019-04-06T21:36:41.657Z,17.43
2019-04-06T21:39:12.225Z,16.80
2019-04-06T21:41:42.930Z,16.73
2019-04-06T21:44:13.665Z,17.43
2019-04-06T21:46:44.639Z,18.43
2019-04-06T21:49:15.238Z,17.23
2019-04-06T21:51:45.930Z,15.90
2019-04-06T21:54:17.507Z,16.80
2019-04-06T21:56:48.078Z,17.33
2019-04-06T21:59:18.576Z,17.23
2019-04-06T22:01:49.412Z,17.30
2019-04-06T22:04:26.077Z,17.20
2019-04-06T22:06:55.608Z,17.87
2019-04-06T22:09:27.131Z,18.47
2019-04-06T22:11:58.459Z,16.57
2019-04-06T22:14:29.299Z,17.87
2019-04-06T22:16:59.953Z,17.47
2019-04-06T22:19:30.480Z,16.40
2019-04-06T22:22:01.186Z,16.97
2019-04-06T22:24:31.727Z,17.37
2019-04-06T22:27:02.698Z,17.10
2019-04-06T22:29:34.290Z,15.47
2019-04-06T22:32:04.980Z,17.37
2019-04-06T22:34:39.889Z,19.63
2019-04-06T22:37:07.753Z,18.00
2019-04-06T22:39:38.262Z,16.90
2019-04-06T22:42:08.947Z,17.47
2019-04-06T22:44:40.028Z,18.17
2019-04-06T22:47:10.655Z,17.23
2019-04-06T22:49:41.541Z,18.60
2019-04-06T22:52:12.218Z,17.77
2019-04-06T22:54:43.531Z,19.03
2019-04-06T22:57:14.745Z,18.53
2019-04-06T22:59:45.874Z,19.17
2019-04-06T23:02:16.783Z,17.30
2019-04-06T23:05:01.088Z,19.87
2019-04-06T23:07:31.721Z,18.47
2019-04-06T23:10:02.894Z,17.63
2019-04-06T23:12:33.783Z,18.20
2019-04-06T23:15:06.125Z,17.93
2019-04-06T23:17:37.127Z,18.33
2019-04-06T23:20:08.324Z,19.07
2019-04-06T23:22:39.011Z,20.03
2019-04-06T23:25:09.505Z,19.17
2019-04-06T23:27:40.480Z,19.13
2019-04-06T23:30:11.262Z,18.10
2019-04-06T23:32:42.229Z,20.50
2019-04-06T23:35:13.116Z,18.40
2019-04-06T23:37:43.658Z,18.50
2019-04-06T23:40:14.554Z,20.00
2019-04-06T23:42:45.864Z,19.97
2019-04-06T23:45:16.554Z,17.97
2019-04-06T23:47:47.049Z,20.37
2019-04-06T23:50:17.854Z,19.23
2019-04-06T23:52:48.368Z,20.37
2019-04-06T23:55:19.192Z,21.17
2019-04-06T23:57:49.847Z,19.07
